Time;durP1;ratioP1;P1;durP2;ratioP2;P2;SDS_P1;SDS_P2;PMS_P1;PMS_P2;Temp;Humidity;BMP_temperature;BMP_pressure;BME280_temperature;BME280_humidity;BME280_pressure;Samples;Min_cycle;Max_cycle;Signal;HPM_P1;HPM_P2
2023/07/08 00:01:42;;;;;;;8.75;3.55;;;21.10;71.50;;;;;;4975961;28;20483;-64
2023/07/08 00:04:07;;;;;;;7.15;2.65;;;21.10;71.90;;;;;;4984707;28;20042;-64
2023/07/08 00:06:35;;;;;;;7.22;3.53;;;21.00;72.00;;;;;;4981629;28;20069;-66
2023/07/08 00:09:00;;;;;;;6.63;2.88;;;21.00;72.50;;;;;;4965840;28;20121;-65
2023/07/08 00:11:28;;;;;;;6.65;3.25;;;20.90;72.70;;;;;;4978863;28;20188;-65
2023/07/08 00:13:54;;;;;;;6.72;2.55;;;20.80;72.90;;;;;;4981369;28;20041;-65
2023/07/08 00:16:20;;;;;;;9.80;3.17;;;20.80;73.20;;;;;;4969142;28;20031;-65
2023/07/08 00:18:48;;;;;;;5.35;2.72;;;20.70;73.40;;;;;;4983603;28;20018;-65
2023/07/08 00:21:16;;;;;;;5.10;3.25;;;20.70;73.50;;;;;;4987328;28;20026;-65
2023/07/08 00:23:46;;;;;;;7.07;2.97;;;20.60;73.50;;;;;;4983131;28;20026;-64
2023/07/08 00:26:26;;;;;;;6.88;3.20;;;20.60;73.70;;;;;;4983377;28;20061;-64
2023/07/08 00:28:52;;;;;;;4.65;2.83;;;20.60;73.50;;;;;;4982406;28;20026;-65
2023/07/08 00:31:23;;;;;;;4.05;2.70;;;20.60;73.70;;;;;;4986880;28;20026;-65
2023/07/08 00:33:49;;;;;;;6.68;2.75;;;20.60;73.80;;;;;;4975723;28;20026;-65
2023/07/08 00:36:16;;;;;;;4.20;2.75;;;20.50;73.70;;;;;;4980998;28;20098;-65
2023/07/08 00:38:46;;;;;;;11.88;3.28;;;20.50;73.80;;;;;;4977494;28;20061;-65
2023/07/08 00:41:18;;;;;;;4.50;2.25;;;20.50;73.60;;;;;;4980146;28;20480;-65
2023/07/08 00:43:51;;;;;;;4.20;2.53;;;20.50;73.50;;;;;;4985275;28;20042;-65
2023/07/08 00:46:31;;;;;;;6.18;2.80;;;20.50;73.50;;;;;;4982901;28;20030;-64
2023/07/08 00:49:22;;;;;;;6.00;2.85;;;20.60;73.40;;;;;;4976007;28;20030;-65
2023/07/08 00:51:48;;;;;;;7.85;2.95;;;20.60;73.40;;;;;;4968694;28;20052;-64
2023/07/08 00:54:16;;;;;;;3.38;2.28;;;20.60;73.50;;;;;;4981404;28;20034;-64
2023/07/08 00:56:43;;;;;;;4.05;2.35;;;20.60;73.50;;;;;;4986220;28;20514;-66
2023/07/08 00:59:16;;;;;;;5.15;3.15;;;20.50;73.50;;;;;;4988722;28;20041;-65
2023/07/08 01:01:43;;;;;;;4.20;2.30;;;20.60;73.50;;;;;;4987143;28;20041;-66
2023/07/08 01:04:24;;;;;;;6.57;2.75;;;20.50;73.60;;;;;;4983699;28;20061;-66
2023/07/08 01:06:57;;;;;;;6.05;3.50;;;20.50;74.00;;;;;;4966957;28;20030;-66
2023/07/08 01:09:30;;;;;;;4.78;2.80;;;20.50;73.60;;;;;;4986503;28;20072;-65
2023/07/08 01:11:58;;;;;;;;;;;20.50;73.80;;;;;;4977246;28;20125;-63
2023/07/08 01:14:26;;;;;;;6.47;2.63;;;20.50;73.50;;;;;;4960015;28;19969;-65
2023/07/08 01:16:52;;;;;;;4.50;2.67;;;20.50;73.50;;;;;;4983258;28;20018;-65
2023/07/08 01:19:31;;;;;;;4.93;2.40;;;20.50;73.60;;;;;;4982840;28;22441;-65
2023/07/08 01:21:58;;;;;;;4.25;2.50;;;20.50;73.40;;;;;;4980938;28;20018;-65
2023/07/08 01:24:24;;;;;;;4.75;2.78;;;20.60;73.30;;;;;;4980853;28;20042;-64
2023/07/08 01:26:49;;;;;;;9.98;2.67;;;20.50;73.40;;;;;;4982417;28;20041;-65
2023/07/08 01:29:15;;;;;;;3.70;2.40;;;20.50;73.30;;;;;;4985387;28;20026;-65
2023/07/08 01:31:48;;;;;;;7.10;2.63;;;20.50;73.10;;;;;;4983705;28;20027;-65
2023/07/08 01:34:17;;;;;;;3.88;2.47;;;20.60;73.10;;;;;;4990078;28;20026;-65
2023/07/08 01:36:50;;;;;;;6.13;2.63;;;20.60;73.20;;;;;;4982134;28;20027;-65
2023/07/08 01:39:19;;;;;;;11.33;2.77;;;20.60;73.00;;;;;;4989326;28;20030;-65
2023/07/08 01:41:45;;;;;;;4.80;2.72;;;20.60;73.00;;;;;;4990083;28;20025;-65
2023/07/08 01:44:34;;;;;;;5.03;2.47;;;20.60;72.60;;;;;;4988286;28;20030;-65
2023/07/08 01:47:04;;;;;;;5.15;3.10;;;20.60;72.90;;;;;;4983226;28;20038;-66
2023/07/08 01:49:32;;;;;;;3.70;2.33;;;20.60;72.70;;;;;;4986163;28;20034;-66
2023/07/08 01:51:58;;;;;;;3.58;2.55;;;20.60;73.00;;;;;;4983591;28;20534;-63
2023/07/08 01:54:24;;;;;;;3.85;2.60;;;20.50;72.70;;;;;;4988337;28;20066;-66
2023/07/08 01:56:56;;;;;;;4.45;2.88;;;20.50;73.10;;;;;;4986696;28;20147;-66
2023/07/08 01:59:21;;;;;;;6.38;2.33;;;20.50;72.90;;;;;;4987386;28;20034;-66
2023/07/08 02:01:49;;;;;;;8.88;3.10;;;20.50;73.20;;;;;;4988090;28;20477;-66
2023/07/08 02:04:14;;;;;;;5.30;2.58;;;20.50;73.10;;;;;;4986934;28;20584;-66
2023/07/08 02:06:40;;;;;;;7.68;2.70;;;20.50;73.10;;;;;;4985816;28;20037;-66
2023/07/08 02:09:06;;;;;;;4.55;2.70;;;20.40;73.40;;;;;;4987867;28;20027;-65
2023/07/08 02:11:31;;;;;;;4.65;2.47;;;20.40;73.40;;;;;;4963281;28;20045;-66
2023/07/08 02:13:57;;;;;;;4.70;2.58;;;20.30;73.50;;;;;;4981392;28;20050;-66
2023/07/08 02:16:22;;;;;;;5.45;1.95;;;20.30;73.60;;;;;;4978656;28;20034;-66
2023/07/08 02:18:48;;;;;;;5.75;2.80;;;20.30;73.70;;;;;;4982704;28;20030;-66
2023/07/08 02:21:13;;;;;;;6.93;2.80;;;20.20;73.60;;;;;;4987374;28;20022;-65
2023/07/08 02:23:39;;;;;;;7.57;2.78;;;20.30;73.70;;;;;;4981928;28;20144;-66
2023/07/08 02:26:05;;;;;;;3.50;2.28;;;20.20;73.60;;;;;;4981138;28;20412;-66
2023/07/08 02:28:30;;;;;;;4.07;2.58;;;20.20;74.10;;;;;;4980080;28;20487;-66
2023/07/08 02:31:01;;;;;;;5.50;2.45;;;20.10;74.10;;;;;;4980767;28;20484;-66
2023/07/08 02:33:32;;;;;;;5.35;2.03;;;20.10;74.20;;;;;;4970607;28;20027;-67
2023/07/08 02:36:00;;;;;;;7.45;2.05;;;20.00;74.50;;;;;;4988688;28;20038;-66
2023/07/08 02:38:26;;;;;;;4.72;2.42;;;20.00;74.50;;;;;;4989081;28;20018;-66
2023/07/08 02:40:52;;;;;;;4.25;2.40;;;19.90;74.90;;;;;;4988512;28;20026;-66
2023/07/08 02:43:17;;;;;;;3.45;2.30;;;19.80;75.00;;;;;;4989113;28;20027;-66
2023/07/08 02:45:43;;;;;;;5.53;2.28;;;19.80;75.20;;;;;;4988718;28;20030;-66
2023/07/08 02:48:08;;;;;;;3.67;2.35;;;19.80;75.10;;;;;;4989284;28;20106;-66
2023/07/08 02:50:34;;;;;;;3.92;2.95;;;19.80;75.40;;;;;;4988565;28;20026;-65
2023/07/08 02:52:59;;;;;;;5.00;2.40;;;19.70;76.10;;;;;;4988823;28;20035;-66
2023/07/08 02:55:25;;;;;;;5.65;3.83;;;19.70;75.50;;;;;;4986604;28;20556;-66
2023/07/08 02:57:51;;;;;;;6.63;2.92;;;19.70;75.50;;;;;;4987479;28;20110;-66
2023/07/08 03:00:16;;;;;;;3.97;2.17;;;19.70;75.70;;;;;;4989331;28;20031;-65
2023/07/08 03:02:42;;;;;;;4.13;2.30;;;19.60;76.10;;;;;;4990186;28;20037;-66
2023/07/08 03:05:08;;;;;;;4.28;2.47;;;19.50;75.80;;;;;;4988810;28;20030;-66
2023/07/08 03:07:33;;;;;;;4.07;2.38;;;19.50;76.10;;;;;;4992047;28;20026;-66
2023/07/08 03:09:59;;;;;;;4.53;2.92;;;19.50;76.40;;;;;;4985687;28;20110;-65
2023/07/08 03:12:25;;;;;;;7.38;2.78;;;19.40;76.60;;;;;;4991693;28;20129;-65
2023/07/08 03:14:50;;;;;;;4.10;2.30;;;19.40;76.70;;;;;;4987744;28;20068;-66
2023/07/08 03:17:17;;;;;;;5.50;2.72;;;19.40;76.60;;;;;;4988223;28;20030;-66
2023/07/08 03:19:43;;;;;;;6.05;2.95;;;19.40;76.90;;;;;;4973205;28;20036;-65
2023/07/08 03:22:09;;;;;;;4.18;2.35;;;19.30;77.00;;;;;;4991420;28;20117;-65
2023/07/08 03:24:34;;;;;;;4.28;2.42;;;19.30;77.00;;;;;;4987681;28;20053;-65
2023/07/08 03:27:04;;;;;;;4.80;2.30;;;19.30;77.20;;;;;;4986937;28;20073;-66
2023/07/08 03:29:30;;;;;;;4.15;2.50;;;19.20;77.30;;;;;;4970046;28;20085;-65
2023/07/08 03:31:56;;;;;;;4.47;2.17;;;19.10;77.90;;;;;;4986464;28;20026;-65
2023/07/08 03:34:21;;;;;;;4.47;2.63;;;19.10;77.80;;;;;;4990583;28;20110;-65
2023/07/08 03:36:51;;;;;;;6.65;3.20;;;19.10;78.20;;;;;;4990454;28;20037;-65
2023/07/08 03:39:22;;;;;;;5.13;2.30;;;19.20;77.70;;;;;;4973457;28;20035;-66
2023/07/08 03:41:49;;;;;;;3.97;2.20;;;19.10;77.80;;;;;;4991925;28;20460;-65
2023/07/08 03:44:17;;;;;;;5.40;2.90;;;19.20;77.50;;;;;;4991644;28;20104;-66
2023/07/08 03:46:49;;;;;;;8.05;2.63;;;19.10;78.00;;;;;;4991728;28;20069;-66
2023/07/08 03:49:15;;;;;;;5.57;2.70;;;19.20;77.90;;;;;;4991410;28;20035;-66
2023/07/08 03:51:42;;;;;;;3.63;2.03;;;19.20;77.50;;;;;;4989056;28;20114;-66
2023/07/08 03:54:13;;;;;;;4.63;2.60;;;19.20;78.30;;;;;;4991263;28;20026;-66
2023/07/08 03:56:39;;;;;;;5.18;2.80;;;19.20;78.10;;;;;;4978342;28;20478;-66
2023/07/08 03:59:04;;;;;;;4.38;2.70;;;19.20;77.50;;;;;;4991474;28;20080;-66
2023/07/08 04:01:30;;;;;;;5.20;2.85;;;19.20;77.50;;;;;;4991526;28;20029;-66
2023/07/08 04:03:58;;;;;;;3.97;2.17;;;19.30;77.20;;;;;;4988903;28;20096;-66
2023/07/08 04:06:25;;;;;;;4.43;2.55;;;19.40;77.10;;;;;;4987309;28;20102;-66
2023/07/08 04:08:51;;;;;;;3.25;2.13;;;19.40;77.10;;;;;;4991206;28;20109;-66
2023/07/08 04:11:21;;;;;;;6.63;2.88;;;19.50;76.90;;;;;;4985802;28;20029;-66
2023/07/08 04:13:47;;;;;;;4.53;2.50;;;19.60;76.50;;;;;;4987770;28;20065;-66
2023/07/08 04:16:56;;;;;;;5.28;2.95;;;19.60;77.10;;;;;;4983645;28;20035;-66
2023/07/08 04:19:23;;;;;;;4.10;2.60;;;19.70;75.90;;;;;;4987096;28;20065;-66
2023/07/08 04:21:49;;;;;;;5.28;2.90;;;19.90;75.60;;;;;;4984812;28;20432;-66
2023/07/08 04:24:17;;;;;;;5.70;3.50;;;19.90;77.40;;;;;;4988620;28;20152;-66
2023/07/08 04:26:46;;;;;;;5.28;2.92;;;20.00;75.70;;;;;;4971060;28;20487;-63
2023/07/08 04:29:16;;;;;;;5.63;2.63;;;20.10;75.70;;;;;;4988981;28;20568;-66
2023/07/08 04:31:42;;;;;;;5.57;3.15;;;20.30;74.80;;;;;;4986361;28;20034;-64
2023/07/08 04:34:09;;;;;;;5.95;3.05;;;20.40;74.40;;;;;;4966015;28;20512;-65
2023/07/08 04:36:35;;;;;;;5.45;2.72;;;20.40;74.40;;;;;;4982867;28;20052;-65
2023/07/08 04:39:03;;;;;;;4.32;2.80;;;20.50;73.90;;;;;;4984410;28;20033;-65
2023/07/08 04:41:28;;;;;;;6.40;2.80;;;20.60;73.90;;;;;;4987891;28;20026;-65
2023/07/08 04:43:57;;;;;;;4.97;3.05;;;20.60;73.80;;;;;;4987080;28;20438;-65
2023/07/08 04:46:47;;;;;;;4.60;2.60;;;20.60;74.30;;;;;;4969682;28;20037;-65
2023/07/08 04:49:13;;;;;;;5.18;3.15;;;20.70;73.80;;;;;;4990910;28;20062;-67
2023/07/08 04:51:40;;;;;;;3.30;2.20;;;20.90;73.70;;;;;;4988218;28;20090;-66
2023/07/08 04:54:06;;;;;;;4.43;2.53;;;21.20;73.30;;;;;;4989776;28;20026;-66
2023/07/08 04:56:41;;;;;;;8.88;2.67;;;21.30;73.30;;;;;;4987183;28;20072;-65
2023/07/08 04:59:09;;;;;;;6.50;2.85;;;21.30;72.60;;;;;;4989506;28;20083;-65
2023/07/08 05:01:35;;;;;;;5.80;3.03;;;21.50;76.00;;;;;;4989655;28;20465;-65
2023/07/08 05:04:01;;;;;;;4.93;2.75;;;22.00;71.40;;;;;;4987323;28;20034;-65
2023/07/08 05:06:27;;;;;;;4.28;2.85;;;22.40;70.60;;;;;;4989229;28;20041;-65
2023/07/08 05:08:54;;;;;;;6.43;2.63;;;22.80;69.70;;;;;;4990429;28;20451;-66
2023/07/08 05:11:19;;;;;;;4.80;2.60;;;23.20;68.90;;;;;;4986884;28;20112;-66
2023/07/08 05:13:45;;;;;;;4.55;2.50;;;23.50;67.10;;;;;;4983129;28;20062;-65
2023/07/08 05:16:10;;;;;;;4.30;2.50;;;23.50;67.70;;;;;;4984925;28;20073;-66
2023/07/08 05:18:36;;;;;;;5.50;2.70;;;23.50;67.80;;;;;;4969797;28;20033;-66
2023/07/08 05:21:02;;;;;;;5.30;3.03;;;23.50;69.30;;;;;;4981611;28;20034;-66
2023/07/08 05:23:28;;;;;;;6.57;3.50;;;23.10;70.40;;;;;;4988527;28;20026;-66
2023/07/08 05:25:54;;;;;;;5.45;3.05;;;23.00;70.10;;;;;;4986193;28;20113;-65
2023/07/08 05:28:21;;;;;;;7.65;2.83;;;22.90;69.70;;;;;;4987608;28;20116;-66
2023/07/08 05:30:47;;;;;;;8.95;2.92;;;22.90;68.20;;;;;;4965707;28;20793;-66
2023/07/08 05:33:13;;;;;;;6.40;2.45;;;22.80;71.10;;;;;;4980710;28;20030;-66
2023/07/08 05:35:38;;;;;;;5.88;2.70;;;23.70;70.30;;;;;;4986223;28;20256;-66
2023/07/08 05:38:04;;;;;;;5.32;3.20;;;25.20;67.50;;;;;;4979868;28;20034;-65
2023/07/08 05:40:29;;;;;;;6.38;2.75;;;26.40;63.20;;;;;;4986561;28;20027;-66
2023/07/08 05:42:55;;;;;;;5.05;2.60;;;26.60;61.80;;;;;;4988874;28;20030;-66
2023/07/08 05:45:21;;;;;;;7.88;2.70;;;26.20;61.70;;;;;;4968439;28;20054;-66
2023/07/08 05:47:46;;;;;;;4.85;2.60;;;25.80;62.60;;;;;;4986981;28;20057;-66
2023/07/08 05:50:12;;;;;;;4.90;2.83;;;26.10;62.20;;;;;;4984413;28;20395;-65
2023/07/08 05:52:38;;;;;;;4.82;3.00;;;25.60;63.20;;;;;;4988411;28;20117;-66
2023/07/08 05:55:04;;;;;;;4.65;2.80;;;25.40;63.40;;;;;;4985900;28;20521;-65
2023/07/08 05:57:30;;;;;;;4.13;2.40;;;25.40;63.00;;;;;;4987695;28;20030;-65
2023/07/08 05:59:55;;;;;;;5.53;2.42;;;25.30;64.70;;;;;;4987578;28;20030;-65
2023/07/08 06:02:23;;;;;;;6.10;2.55;;;25.00;66.70;;;;;;4967278;28;20026;-65
2023/07/08 06:04:48;;;;;;;4.13;2.80;;;25.80;64.00;;;;;;4983193;28;20029;-66
2023/07/08 06:07:14;;;;;;;4.00;2.35;;;26.80;62.50;;;;;;4984806;28;21157;-65
2023/07/08 06:09:40;;;;;;;4.82;2.90;;;28.20;62.90;;;;;;4985525;28;20508;-66
2023/07/08 06:12:05;;;;;;;5.47;2.80;;;29.70;60.70;;;;;;4983931;28;20026;-66
2023/07/08 06:14:31;;;;;;;4.78;2.72;;;31.60;57.30;;;;;;4981241;28;20034;-65
2023/07/08 06:16:58;;;;;;;6.63;3.10;;;30.70;55.20;;;;;;4985117;28;20093;-65
2023/07/08 06:19:23;;;;;;;3.75;2.53;;;30.60;54.30;;;;;;4967555;28;20034;-65
2023/07/08 06:21:49;;;;;;;4.03;2.67;;;30.80;56.00;;;;;;4964099;28;20089;-66
2023/07/08 06:24:15;;;;;;;6.68;3.17;;;31.40;57.20;;;;;;4986127;28;20117;-66
2023/07/08 06:26:40;;;;;;;9.68;3.42;;;32.70;53.40;;;;;;4982971;28;20118;-66
2023/07/08 06:29:06;;;;;;;6.85;3.03;;;32.90;53.40;;;;;;4987759;28;20403;-66
2023/07/08 06:31:31;;;;;;;3.35;2.65;;;33.50;53.60;;;;;;4978217;28;20035;-66
2023/07/08 06:33:57;;;;;;;4.75;3.13;;;33.40;52.30;;;;;;4981260;28;20043;-66
2023/07/08 06:36:23;;;;;;;3.75;2.47;;;33.70;54.10;;;;;;4982206;28;20034;-66
2023/07/08 06:38:48;;;;;;;5.25;3.17;;;35.30;51.40;;;;;;4986661;28;20027;-66
2023/07/08 06:41:14;;;;;;;9.88;3.40;;;35.80;50.80;;;;;;4991243;28;20105;-66
2023/07/08 06:43:40;;;;;;;6.72;3.17;;;35.80;51.30;;;;;;4992621;28;20022;-66
2023/07/08 06:46:06;;;;;;;4.45;2.65;;;35.90;49.40;;;;;;4981630;28;20027;-66
2023/07/08 06:48:32;;;;;;;3.85;2.85;;;35.20;51.60;;;;;;4992752;28;20054;-66
2023/07/08 06:50:58;;;;;;;8.90;3.50;;;33.70;53.90;;;;;;4992304;28;20076;-66
2023/07/08 06:53:24;;;;;;;5.28;3.05;;;33.40;54.00;;;;;;4991480;28;20027;-66
2023/07/08 06:55:49;;;;;;;4.25;2.45;;;33.50;52.80;;;;;;4987686;28;20038;-66
2023/07/08 06:58:15;;;;;;;5.53;3.10;;;32.70;55.80;;;;;;4992493;28;20085;-67
2023/07/08 07:00:42;;;;;;;9.32;3.15;;;33.20;55.00;;;;;;4991438;28;20510;-66
2023/07/08 07:03:08;;;;;;;5.13;3.08;;;34.30;51.90;;;;;;4989535;28;20526;-67
2023/07/08 07:05:34;;;;;;;5.03;3.53;;;35.00;51.70;;;;;;4986849;28;20030;-67
2023/07/08 07:07:59;;;;;;;3.78;2.97;;;35.90;50.10;;;;;;4989402;28;20038;-66
2023/07/08 07:10:25;;;;;;;6.55;3.22;;;36.20;51.30;;;;;;4988458;28;20061;-64
2023/07/08 07:12:50;;;;;;;6.40;3.10;;;37.30;50.90;;;;;;4990086;28;20022;-64
2023/07/08 07:15:16;;;;;;;4.03;3.45;;;37.60;48.80;;;;;;4988449;28;20069;-66
2023/07/08 07:17:42;;;;;;;5.75;2.92;;;37.90;48.90;;;;;;4982188;28;20058;-65
2023/07/08 07:20:08;;;;;;;4.43;3.53;;;36.40;49.30;;;;;;4990606;28;20027;-65
2023/07/08 07:22:35;;;;;;;6.97;3.25;;;35.80;52.90;;;;;;4989576;28;20032;-65
2023/07/08 07:25:01;;;;;;;4.70;3.47;;;36.10;52.50;;;;;;4987116;28;20053;-65
2023/07/08 07:27:26;;;;;;;6.10;3.90;;;35.80;52.70;;;;;;4990927;28;20029;-66
2023/07/08 07:29:52;;;;;;;5.57;3.40;;;35.90;51.50;;;;;;4984895;28;20101;-66
2023/07/08 07:32:22;;;;;;;11.52;4.00;;;36.30;52.00;;;;;;4986683;28;20034;-65
2023/07/08 07:34:49;;;;;;;6.40;3.80;;;36.70;49.70;;;;;;4987882;28;20377;-66
2023/07/08 07:37:16;;;;;;;4.57;3.53;;;36.10;49.70;;;;;;4987858;28;20065;-63
2023/07/08 07:39:42;;;;;;;7.00;3.15;;;34.90;49.30;;;;;;4988838;28;20110;-65
2023/07/08 07:42:09;;;;;;;5.65;3.85;;;33.80;52.30;;;;;;4988211;28;20105;-65
2023/07/08 07:44:34;;;;;;;5.65;3.58;;;32.70;52.00;;;;;;4980582;28;20038;-64
2023/07/08 07:47:01;;;;;;;6.68;3.80;;;31.80;53.90;;;;;;4970977;28;20411;-65
2023/07/08 07:49:27;;;;;;;7.03;3.50;;;32.10;55.40;;;;;;4968483;28;20101;-64
2023/07/08 07:51:52;;;;;;;9.13;3.53;;;32.40;54.00;;;;;;4968642;28;20464;-65
2023/07/08 07:54:18;;;;;;;5.82;3.58;;;34.20;52.90;;;;;;4990556;28;20038;-65
2023/07/08 07:56:43;;;;;;;4.97;3.88;;;35.30;50.90;;;;;;4967427;28;20036;-65
2023/07/08 07:59:10;;;;;;;7.38;3.55;;;35.40;49.90;;;;;;4989257;28;20046;-65
2023/07/08 08:01:36;;;;;;;6.82;4.00;;;35.60;51.70;;;;;;4960981;28;20030;-65
2023/07/08 08:04:01;;;;;;;6.32;3.67;;;36.00;50.60;;;;;;4975655;28;20035;-64
2023/07/08 08:06:27;;;;;;;4.35;3.30;;;36.50;49.60;;;;;;4978201;28;20035;-65
2023/07/08 08:08:53;;;;;;;5.38;3.70;;;37.50;50.70;;;;;;4978789;28;20039;-66
2023/07/08 08:11:19;;;;;;;5.60;3.85;;;38.00;50.10;;;;;;4980931;28;20460;-66
2023/07/08 08:13:45;;;;;;;7.13;3.70;;;38.50;48.80;;;;;;4980364;28;20033;-66
2023/07/08 08:16:10;;;;;;;4.65;3.38;;;38.80;49.00;;;;;;4972799;28;20026;-66
2023/07/08 08:18:36;;;;;;;7.45;3.58;;;38.90;47.80;;;;;;4973922;28;20023;-65
2023/07/08 08:21:03;;;;;;;7.80;4.03;;;39.60;49.30;;;;;;4978921;28;20476;-66
2023/07/08 08:23:28;;;;;;;4.80;3.67;;;40.10;49.30;;;;;;4977232;28;20048;-66
2023/07/08 08:25:54;;;;;;;5.53;3.90;;;40.10;46.80;;;;;;4978279;28;20023;-66
2023/07/08 08:28:19;;;;;;;4.68;3.63;;;40.30;47.00;;;;;;4977398;28;20058;-66
2023/07/08 08:30:49;;;;;;;5.07;3.88;;;40.00;47.60;;;;;;4981769;28;20034;-65
2023/07/08 08:33:15;;;;;;;5.25;3.22;;;40.20;46.80;;;;;;4967776;28;20451;-66
2023/07/08 08:35:44;;;;;;;5.25;3.28;;;40.30;46.50;;;;;;4984319;28;20651;-66
2023/07/08 08:38:10;;;;;;;4.25;3.13;;;40.20;46.20;;;;;;4985222;28;20030;-66
2023/07/08 08:40:36;;;;;;;6.65;3.58;;;39.30;45.90;;;;;;4988780;28;20859;-66
2023/07/08 08:43:39;;;;;;;5.55;3.70;;;39.30;45.90;;;;;;4978646;28;20133;-66
2023/07/08 08:46:16;;;;;;;10.73;3.88;;;39.20;47.10;;;;;;4969906;28;20045;-64
2023/07/08 08:49:07;;;;;;;5.20;3.20;;;39.40;47.40;;;;;;4983079;28;20410;-66
2023/07/08 08:51:33;;;;;;;4.73;3.30;;;39.60;46.40;;;;;;4967195;28;20038;-66
2023/07/08 08:53:59;;;;;;;4.45;3.50;;;40.30;46.10;;;;;;4986976;28;20656;-66
2023/07/08 08:56:28;;;;;;;4.20;3.30;;;40.10;46.30;;;;;;4990216;28;20046;-66
2023/07/08 08:59:11;;;;;;;4.78;3.25;;;39.70;45.80;;;;;;4987175;28;20030;-66
2023/07/08 09:01:37;;;;;;;4.50;3.38;;;39.30;46.30;;;;;;4971810;28;20034;-66
2023/07/08 09:04:11;;;;;;;4.20;2.88;;;39.00;47.90;;;;;;4982812;28;20026;-67
2023/07/08 09:06:38;;;;;;;4.68;3.13;;;39.10;47.80;;;;;;4977389;28;20027;-66
2023/07/08 09:09:18;;;;;;;4.72;2.70;;;39.70;46.60;;;;;;4985959;28;20027;-67
2023/07/08 09:12:04;;;;;;;5.75;3.08;;;39.60;46.70;;;;;;4984513;28;20031;-65
2023/07/08 09:14:32;;;;;;;4.93;3.13;;;38.90;46.20;;;;;;4977016;28;20030;-64
2023/07/08 09:17:16;;;;;;;4.57;3.47;;;39.20;47.40;;;;;;4982903;28;20070;-64
2023/07/08 09:19:49;;;;;;;10.35;2.97;;;39.50;48.80;;;;;;4983408;28;20030;-64
2023/07/08 09:22:28;;;;;;;4.85;3.33;;;39.70;46.30;;;;;;4982016;28;20076;-64
2023/07/08 09:25:20;;;;;;;4.57;3.50;;;40.10;47.00;;;;;;4969219;28;20417;-64
2023/07/08 09:27:47;;;;;;;4.93;3.10;;;40.10;46.30;;;;;;4967558;28;20030;-65
2023/07/08 09:30:15;;;;;;;5.85;3.30;;;40.20;46.80;;;;;;4971136;28;20049;-64
2023/07/08 09:32:41;;;;;;;4.57;2.78;;;40.30;45.90;;;;;;4987194;28;20030;-65
2023/07/08 09:35:08;;;;;;;4.85;2.75;;;40.20;47.30;;;;;;4965336;28;20026;-64
2023/07/08 09:37:38;;;;;;;4.15;2.88;;;40.10;45.50;;;;;;4982720;28;20027;-65
2023/07/08 09:40:20;;;;;;;3.78;2.65;;;40.20;47.20;;;;;;4968690;28;20027;-65
2023/07/08 09:43:00;;;;;;;4.43;2.90;;;40.20;46.60;;;;;;4974854;28;20069;-65
2023/07/08 09:45:25;;;;;;;4.65;2.85;;;40.20;48.10;;;;;;4984470;28;20022;-65
2023/07/08 09:47:56;;;;;;;4.45;3.40;;;39.50;47.30;;;;;;4983592;28;20042;-65
2023/07/08 09:50:24;;;;;;;6.05;2.85;;;39.80;47.20;;;;;;4985202;28;20057;-65
2023/07/08 09:52:52;;;;;;;6.45;3.70;;;40.80;46.90;;;;;;4989946;28;20282;-64
2023/07/08 09:55:18;;;;;;;5.88;3.65;;;40.50;45.60;;;;;;4977689;28;20571;-64
2023/07/08 09:57:48;;;;;;;4.40;3.17;;;40.20;45.80;;;;;;4985580;28;20065;-65
2023/07/08 10:00:17;;;;;;;7.73;4.30;;;40.40;47.70;;;;;;4970539;28;20088;-64
2023/07/08 10:02:54;;;;;;;4.05;2.63;;;40.10;46.00;;;;;;4979105;28;20032;-64
2023/07/08 10:05:25;;;;;;;4.07;3.00;;;39.90;46.50;;;;;;4962103;28;21145;-65
2023/07/08 10:07:54;;;;;;;6.03;2.58;;;39.60;46.30;;;;;;4989256;28;20029;-64
2023/07/08 10:10:29;;;;;;;6.07;3.22;;;39.00;46.10;;;;;;4971768;28;20034;-67
2023/07/08 10:12:58;;;;;;;4.85;2.60;;;38.40;47.40;;;;;;4973259;28;20500;-67
2023/07/08 10:15:33;;;;;;;11.07;3.10;;;38.10;48.50;;;;;;4986132;28;20130;-67
2023/07/08 10:17:59;;;;;;;4.93;2.67;;;38.00;48.40;;;;;;4990623;28;20026;-66
2023/07/08 10:20:49;;;;;;;9.68;3.22;;;37.50;48.30;;;;;;4983798;28;20026;-66
2023/07/08 10:23:42;;;;;;;7.47;3.42;;;37.00;49.00;;;;;;4937593;28;20107;-67
2023/07/08 10:26:25;;;;;;;5.95;3.08;;;36.80;50.30;;;;;;4988595;28;20038;-66
2023/07/08 10:28:53;;;;;;;6.40;3.30;;;36.40;49.60;;;;;;4989650;28;20065;-67
2023/07/08 10:31:19;;;;;;;4.38;2.60;;;36.40;49.90;;;;;;4989361;28;20027;-66
2023/07/08 10:34:25;;;;;;;4.88;2.80;;;36.50;51.20;;;;;;4987867;28;20101;-67
2023/07/08 10:37:05;;;;;;;4.93;2.72;;;36.60;49.60;;;;;;4982596;28;20042;-67
2023/07/08 10:39:52;;;;;;;7.30;3.00;;;36.20;50.00;;;;;;4963113;28;20034;-67
2023/07/08 10:42:47;;;;;;;4.50;2.60;;;35.80;50.10;;;;;;4965779;28;20027;-67
2023/07/08 10:45:31;;;;;;;5.45;2.72;;;35.80;49.90;;;;;;4976803;28;20593;-67
2023/07/08 10:48:25;;;;;;;5.00;2.72;;;35.60;49.50;;;;;;4982111;28;20405;-66
2023/07/08 10:51:25;;;;;;;6.15;3.20;;;35.40;51.50;;;;;;4988586;28;20018;-62
2023/07/08 10:54:08;;;;;;;4.85;2.75;;;35.30;51.40;;;;;;4987702;28;20480;-67
2023/07/08 10:56:47;;;;;;;5.57;3.13;;;35.00;50.20;;;;;;4989516;28;20652;-66
2023/07/08 10:59:24;;;;;;;5.47;2.92;;;35.20;51.60;;;;;;4985360;28;20038;-67
2023/07/08 11:01:58;;;;;;;9.45;3.35;;;35.40;51.10;;;;;;4971818;28;20057;-66
2023/07/08 11:04:44;;;;;;;3.65;2.40;;;35.30;50.30;;;;;;4989045;28;20046;-66
2023/07/08 11:07:39;;;;;;;4.85;2.80;;;35.20;50.90;;;;;;4990995;28;20030;-66
2023/07/08 11:10:17;;;;;;;5.05;3.03;;;35.20;51.20;;;;;;4988117;28;20026;-62
2023/07/08 11:12:49;;;;;;;4.80;2.70;;;34.90;50.50;;;;;;4978239;28;20599;-67
2023/07/08 11:15:15;;;;;;;;;;;34.90;50.90;;;;;;4988025;28;20030;-66
2023/07/08 11:18:03;;;;;;;5.95;2.65;;;34.90;50.80;;;;;;4984303;28;19952;-66
2023/07/08 11:20:42;;;;;;;4.88;2.90;;;34.80;51.50;;;;;;4987721;28;20057;-66
2023/07/08 11:23:33;;;;;;;6.65;3.15;;;34.80;51.90;;;;;;4985301;28;20062;-66
2023/07/08 11:26:19;;;;;;;6.35;2.67;;;34.70;51.60;;;;;;4987715;28;20034;-66
2023/07/08 11:28:46;;;;;;;5.22;2.97;;;34.70;51.70;;;;;;4986108;28;20859;-67
2023/07/08 11:31:14;;;;;;;4.68;2.88;;;34.70;51.90;;;;;;4986675;28;20713;-66
2023/07/08 11:33:41;;;;;;;4.68;2.70;;;34.70;52.30;;;;;;4981946;28;20022;-66
2023/07/08 11:36:08;;;;;;;5.97;3.15;;;34.90;51.70;;;;;;4982486;28;20030;-66
2023/07/08 11:38:38;;;;;;;8.05;2.80;;;34.80;50.90;;;;;;4988040;28;20504;-66
2023/07/08 11:41:14;;;;;;;8.48;2.70;;;34.80;52.30;;;;;;4981961;28;20492;-67
2023/07/08 11:43:56;;;;;;;4.90;2.97;;;34.90;51.40;;;;;;4982702;28;20030;-66
2023/07/08 11:46:32;;;;;;;5.07;2.83;;;34.60;50.50;;;;;;4983635;28;20057;-66
2023/07/08 11:49:11;;;;;;;8.00;3.03;;;34.50;50.80;;;;;;4984560;28;20110;-66
2023/07/08 11:51:39;;;;;;;6.43;2.83;;;34.60;51.50;;;;;;4984387;28;20381;-67
2023/07/08 11:54:18;;;;;;;5.40;3.15;;;34.60;52.70;;;;;;4984549;28;20030;-66
2023/07/08 11:56:56;;;;;;;6.65;2.90;;;34.40;52.60;;;;;;4973572;28;20023;-66
2023/07/08 11:59:25;;;;;;;4.90;2.83;;;34.40;53.40;;;;;;4989100;28;20400;-66
2023/07/08 12:01:50;;;;;;;8.55;3.03;;;34.30;51.60;;;;;;4987273;28;20022;-66
2023/07/08 12:04:35;;;;;;;8.95;3.88;;;34.30;51.90;;;;;;4970976;28;20022;-66
2023/07/08 12:07:14;;;;;;;7.03;3.30;;;34.40;50.90;;;;;;4968012;28;20451;-67
2023/07/08 12:10:01;;;;;;;7.10;2.90;;;34.20;52.40;;;;;;4974244;28;20039;-66
2023/07/08 12:12:33;;;;;;;4.68;2.75;;;34.30;53.10;;;;;;4984671;28;20030;-67
2023/07/08 12:15:09;;;;;;;5.65;2.95;;;34.30;52.90;;;;;;4983776;28;20034;-66
2023/07/08 12:17:38;;;;;;;5.88;2.78;;;34.30;52.80;;;;;;4982315;28;20023;-66
2023/07/08 12:20:13;;;;;;;11.85;3.17;;;34.40;52.00;;;;;;4983315;28;20508;-66
2023/07/08 12:22:39;;;;;;;5.93;2.90;;;34.30;52.70;;;;;;4966408;28;20063;-66
2023/07/08 12:25:19;;;;;;;6.03;3.40;;;34.10;51.60;;;;;;4977537;28;20069;-66
2023/07/08 12:27:46;;;;;;;5.78;3.38;;;34.00;51.80;;;;;;4988033;28;20515;-67
2023/07/08 12:30:12;;;;;;;5.00;3.03;;;34.00;53.30;;;;;;4969958;28;20073;-66
2023/07/08 12:32:39;;;;;;;6.65;3.13;;;34.20;53.40;;;;;;4973224;28;20037;-66
2023/07/08 12:35:08;;;;;;;4.93;2.92;;;34.10;52.70;;;;;;4980267;28;20180;-66
2023/07/08 12:37:33;;;;;;;9.70;3.33;;;33.90;52.30;;;;;;4965692;28;20023;-67
2023/07/08 12:40:03;;;;;;;6.78;3.30;;;33.90;53.50;;;;;;4980370;28;20037;-66
2023/07/08 12:42:30;;;;;;;6.03;3.33;;;34.10;53.30;;;;;;4978843;28;20991;-66
2023/07/08 12:44:56;;;;;;;7.45;3.40;;;34.10;52.40;;;;;;4961254;28;20037;-66
2023/07/08 12:47:22;;;;;;;5.25;3.22;;;34.10;53.40;;;;;;4984240;28;20026;-66
2023/07/08 12:49:48;;;;;;;5.68;3.65;;;34.10;54.20;;;;;;4982659;28;20034;-66
2023/07/08 12:52:22;;;;;;;9.75;3.50;;;34.20;51.80;;;;;;4990159;28;20037;-66
2023/07/08 12:54:48;;;;;;;8.35;3.33;;;34.00;53.40;;;;;;4983086;28;20396;-66
2023/07/08 12:57:15;;;;;;;7.00;3.50;;;33.90;53.50;;;;;;4974834;28;20030;-66
2023/07/08 12:59:41;;;;;;;8.68;3.85;;;34.10;53.80;;;;;;4984641;28;20113;-66
2023/07/08 13:02:16;;;;;;;5.22;3.65;;;34.00;53.00;;;;;;4984232;28;20136;-64